createdAt,value
2018-04-23T09:39:43.087Z,100844.31
2018-04-23T09:42:12.178Z,100835.88
2018-04-23T09:44:40.519Z,100846.89
2018-04-23T09:47:08.990Z,100851.18
2018-04-23T09:49:37.495Z,100855.72
2018-04-23T09:52:05.869Z,100850.37
2018-04-23T09:54:34.150Z,100860.36
2018-04-23T09:57:02.837Z,100853.02
2018-04-23T09:59:31.103Z,100859.36
2018-04-23T10:01:59.406Z,100864.52
2018-04-23T10:04:27.679Z,100867.09
2018-04-23T10:06:55.984Z,100866.48
2018-04-23T10:09:24.351Z,100868.08
2018-04-23T10:11:52.656Z,100868.86
2018-04-23T10:14:20.958Z,100873.64
2018-04-23T10:16:49.311Z,100877.58
2018-04-23T10:19:17.837Z,100885.55
2018-04-23T10:21:46.115Z,100878.95
2018-04-23T10:24:14.392Z,100882.86
2018-04-23T10:26:42.670Z,100881.76
2018-04-23T10:29:10.979Z,100888.30
2018-04-23T10:31:39.288Z,100876.67
2018-04-23T10:34:07.891Z,100890.14
2018-04-23T10:36:36.195Z,100894.95
2018-04-23T10:39:04.510Z,100897.13
2018-04-23T10:41:32.839Z,100900.25
2018-04-23T10:44:01.508Z,100897.00
2018-04-23T10:46:29.793Z,100892.27
2018-04-23T10:48:58.125Z,100888.68
2018-04-23T10:51:26.422Z,100890.23
2018-04-23T10:53:54.725Z,100898.36
2018-04-23T10:56:23.004Z,100901.98
2018-04-23T10:58:51.347Z,100904.13
2018-04-23T11:01:19.640Z,100900.09
2018-04-23T11:03:47.927Z,100898.02
2018-04-23T11:06:17.686Z,100899.25
2018-04-23T11:08:45.991Z,100903.55
2018-04-23T11:11:14.273Z,100904.59
2018-04-23T11:13:42.573Z,100902.94
2018-04-23T11:16:10.887Z,100911.87
2018-04-23T11:18:39.203Z,100908.98
2018-04-23T11:21:07.847Z,100904.63
2018-04-23T11:23:36.383Z,100902.06
2018-04-23T11:26:04.690Z,100902.86
2018-04-23T11:28:34.259Z,100900.75
2018-04-23T11:31:02.528Z,100899.28
2018-04-23T11:33:30.843Z,100903.30
2018-04-23T11:35:59.172Z,100894.34
2018-04-23T11:38:27.447Z,100890.05
2018-04-23T11:40:55.783Z,100894.87
2018-04-23T11:43:24.230Z,100899.20
2018-04-23T11:45:52.522Z,100898.63
2018-04-23T11:48:20.957Z,100899.75
2018-04-23T11:50:49.260Z,100896.12
2018-04-23T11:53:18.166Z,100898.25
2018-04-23T11:55:46.799Z,100902.17
2018-04-23T11:58:15.110Z,100898.77
2018-04-23T12:00:43.395Z,100902.93
2018-04-23T12:03:11.696Z,100898.58
2018-04-23T12:05:40.212Z,100897.83
2018-04-23T12:08:08.843Z,100886.44
2018-04-23T12:10:37.328Z,100881.50
2018-04-23T12:13:05.619Z,100883.86
2018-04-23T12:15:34.124Z,100891.02
2018-04-23T12:18:02.726Z,100877.58
2018-04-23T12:20:31.260Z,100887.59
2018-04-23T12:22:59.547Z,100887.45
2018-04-23T12:25:27.837Z,100889.78
2018-04-23T12:27:56.113Z,100888.13
2018-04-23T12:30:24.383Z,100878.91
2018-04-23T12:32:52.691Z,100882.66
2018-04-23T12:35:20.967Z,100889.17
2018-04-23T12:37:49.450Z,100885.78
2018-04-23T12:40:17.724Z,100881.80
2018-04-23T12:42:46.052Z,100892.22
2018-04-23T12:45:14.326Z,100889.88
2018-04-23T12:47:42.600Z,100891.69
2018-04-23T12:50:10.907Z,100886.23
2018-04-23T12:52:39.251Z,100881.97
2018-04-23T12:55:07.567Z,100879.84
2018-04-23T12:57:35.840Z,100886.39
2018-04-23T13:00:07.546Z,100881.09
2018-04-23T13:02:35.823Z,100877.84
2018-04-23T13:05:07.075Z,100883.47
2018-04-23T13:07:35.362Z,100887.64
2018-04-23T13:10:09.809Z,100869.78
2018-04-23T13:12:38.073Z,100871.75
2018-04-23T13:15:06.368Z,100874.73
2018-04-23T13:17:34.637Z,100869.77
2018-04-23T13:20:06.698Z,100866.66
2018-04-23T13:22:35.196Z,100861.44
2018-04-23T13:25:07.288Z,100859.36
2018-04-23T13:27:35.579Z,100856.89
2018-04-23T13:30:07.105Z,100847.32
2018-04-23T13:32:35.376Z,100847.95
2018-04-23T13:35:07.645Z,100843.68
2018-04-23T13:37:35.963Z,100849.31
2018-04-23T13:40:07.859Z,100837.23
2018-04-23T13:42:36.161Z,100836.30
2018-04-23T13:45:06.172Z,100833.80
2018-04-23T13:47:34.628Z,100827.65
2018-04-23T13:50:07.239Z,100823.09
2018-04-23T13:52:35.533Z,100818.40
2018-04-23T13:55:07.234Z,100819.50
2018-04-23T13:57:35.549Z,100815.95
2018-04-23T14:00:07.584Z,100802.63
2018-04-23T14:02:35.899Z,100818.91
2018-04-23T14:05:08.263Z,100811.44
2018-04-23T14:07:36.778Z,100804.47
2018-04-23T14:10:06.393Z,100793.67
2018-04-23T14:12:34.710Z,100799.96
2018-04-23T14:15:06.802Z,100804.52
2018-04-23T14:17:35.087Z,100798.53
2018-04-23T14:20:07.693Z,100798.61
2018-04-23T14:22:35.972Z,100792.61
2018-04-23T14:25:07.706Z,100796.41
2018-04-23T14:27:36.042Z,100795.92
2018-04-23T14:30:07.960Z,100796.86
2018-04-23T14:32:36.424Z,100794.67
2018-04-23T14:35:06.487Z,100789.25
2018-04-23T14:37:34.760Z,100788.20
2018-04-23T14:40:08.796Z,100791.39
2018-04-23T14:42:37.070Z,100783.78
2018-04-23T14:45:06.803Z,100795.23
2018-04-23T14:47:35.060Z,100796.33
2018-04-23T14:50:07.324Z,100797.80
2018-04-23T14:52:36.057Z,100794.31
2018-04-23T14:55:06.165Z,100791.48
2018-04-23T14:57:34.425Z,100793.57
2018-04-23T15:00:06.140Z,100799.98
2018-04-23T15:02:34.376Z,100805.77
2018-04-23T15:05:05.870Z,100805.25
2018-04-23T15:07:34.140Z,100807.25
2018-04-23T15:10:05.967Z,100800.72
2018-04-23T15:12:34.240Z,100807.48
2018-04-23T15:15:05.607Z,100811.43
2018-04-23T15:17:33.965Z,100810.84
2018-04-23T15:20:06.146Z,100809.52
2018-04-23T15:22:34.439Z,100805.95
2018-04-23T15:25:05.910Z,100817.47
2018-04-23T15:27:34.187Z,100814.92
2018-04-23T15:30:05.543Z,100821.66
2018-04-23T15:32:33.879Z,100822.05
2018-04-23T15:35:08.697Z,100823.77
2018-04-23T15:37:36.970Z,100831.57
2018-04-23T15:40:06.794Z,100839.34
2018-04-23T15:42:35.294Z,100835.39
2018-04-23T15:45:07.104Z,100839.23
2018-04-23T15:47:35.396Z,100834.19
2018-04-23T15:50:06.972Z,100838.38
2018-04-23T15:52:35.445Z,100845.61
2018-04-23T15:55:07.581Z,100850.66
2018-04-23T15:57:35.872Z,100853.72
2018-04-23T16:00:07.507Z,100856.52
2018-04-23T16:02:35.806Z,100857.93
2018-04-23T16:05:07.970Z,100860.17
2018-04-23T16:07:36.259Z,100853.55
2018-04-23T16:10:08.020Z,100849.49
2018-04-23T16:12:36.380Z,100848.01
2018-04-23T16:15:08.156Z,100854.75
2018-04-23T16:17:36.447Z,100853.08
2018-04-23T16:20:07.848Z,100850.72
2018-04-23T16:22:36.135Z,100851.78
2018-04-23T16:25:07.962Z,100849.20
2018-04-23T16:27:36.231Z,100846.63
2018-04-23T16:30:09.480Z,100853.70
2018-04-23T16:32:37.825Z,100856.22
2018-04-23T16:35:07.173Z,100857.48
2018-04-23T16:37:35.440Z,100847.04
2018-04-23T16:40:07.065Z,100854.88
2018-04-23T16:42:36.055Z,100857.19
2018-04-23T16:45:08.215Z,100859.19
2018-04-23T16:47:36.508Z,100858.98
2018-04-23T16:50:07.923Z,100857.50
2018-04-23T16:52:36.198Z,100861.02
2018-04-23T16:55:06.383Z,100861.31
2018-04-23T16:57:34.670Z,100863.27
2018-04-23T17:00:06.640Z,100866.27
2018-04-23T17:02:34.914Z,100862.95
2018-04-23T17:05:07.070Z,100857.36
2018-04-23T17:07:35.532Z,100861.12
2018-04-23T17:10:07.382Z,100864.44
2018-04-23T17:12:35.695Z,100871.83
2018-04-23T17:15:06.439Z,100866.02
2018-04-23T17:17:34.731Z,100869.36
2018-04-23T17:20:06.729Z,100866.66
2018-04-23T17:22:35.023Z,100866.44
2018-04-23T17:25:06.335Z,100865.52
2018-04-23T17:27:34.636Z,100864.59
2018-04-23T17:30:07.022Z,100867.02
2018-04-23T17:32:35.321Z,100872.23
2018-04-23T17:35:09.282Z,100876.09
2018-04-23T17:37:37.666Z,100883.44
2018-04-23T17:40:07.747Z,100872.73
2018-04-23T17:42:36.062Z,100877.25
2018-04-23T17:45:08.856Z,100890.67
2018-04-23T17:47:37.906Z,100885.10
2018-04-23T17:50:06.652Z,100886.52
2018-04-23T17:52:34.962Z,100893.98
2018-04-23T17:55:08.935Z,100895.84
2018-04-23T17:57:37.235Z,100894.34
2018-04-23T18:00:06.536Z,100900.41
2018-04-23T18:02:35.578Z,100897.98
2018-04-23T18:05:06.735Z,100900.63
2018-04-23T18:07:34.993Z,100902.67
2018-04-23T18:10:06.627Z,100903.46
2018-04-23T18:12:34.954Z,100901.42
2018-04-23T18:15:07.100Z,100902.17
2018-04-23T18:17:35.689Z,100906.25
2018-04-23T18:20:07.647Z,100903.84
2018-04-23T18:22:36.507Z,100912.48
2018-04-23T18:25:06.507Z,100904.48
2018-04-23T18:27:34.832Z,100906.62
2018-04-23T18:30:09.720Z,100904.99
2018-04-23T18:32:38.311Z,100911.75
2018-04-23T18:35:06.876Z,100916.06
2018-04-23T18:37:35.579Z,100912.88
2018-04-23T18:40:07.107Z,100915.56
2018-04-23T18:42:35.380Z,100915.99
2018-04-23T18:45:06.879Z,100917.77
2018-04-23T18:47:35.172Z,100917.56
2018-04-23T18:50:06.635Z,100926.03
2018-04-23T18:52:34.891Z,100919.22
2018-04-23T18:55:09.931Z,100923.88
2018-04-23T18:57:38.230Z,100925.13
2018-04-23T19:00:06.541Z,100930.27
2018-04-23T19:02:34.889Z,100932.98
2018-04-23T19:05:06.410Z,100930.62
2018-04-23T19:07:34.959Z,100933.62
2018-04-23T19:10:06.896Z,100935.55
2018-04-23T19:12:35.133Z,100941.52
2018-04-23T19:15:06.874Z,100944.20
2018-04-23T19:17:35.131Z,100949.88
2018-04-23T19:20:07.209Z,100956.92
2018-04-23T19:22:35.564Z,100956.05
2018-04-23T19:25:07.420Z,100960.03
2018-04-23T19:27:35.680Z,100948.86
2018-04-23T19:30:07.865Z,100959.02
2018-04-23T19:32:36.162Z,100954.84
2018-04-23T19:35:08.087Z,100959.50
2018-04-23T19:37:36.401Z,100962.25
2018-04-23T19:40:06.553Z,100974.20
2018-04-23T19:42:34.863Z,100975.41
2018-04-23T19:45:06.687Z,100980.77
2018-04-23T19:47:34.955Z,100978.58
2018-04-23T19:50:07.908Z,100985.22
2018-04-23T19:52:36.207Z,100991.02
2018-04-23T19:55:07.692Z,100998.22
2018-04-23T19:57:35.984Z,100995.45
2018-04-23T20:00:07.871Z,100994.28
2018-04-23T20:02:36.722Z,101002.75
2018-04-23T20:05:06.527Z,101004.17
2018-04-23T20:07:35.154Z,101012.36
2018-04-23T20:10:07.249Z,101015.77
2018-04-23T20:12:35.553Z,101012.94
2018-04-23T20:15:07.134Z,101020.84
2018-04-23T20:17:35.424Z,101011.92
2018-04-23T20:20:07.264Z,101006.97
2018-04-23T20:22:36.019Z,101006.56
2018-04-23T20:25:06.473Z,101008.48
2018-04-23T20:27:34.751Z,101010.66
2018-04-23T20:30:08.680Z,101014.66
2018-04-23T20:32:36.971Z,101014.38
2018-04-23T20:35:06.611Z,101009.91
2018-04-23T20:37:34.892Z,101010.50
2018-04-23T20:40:06.944Z,101014.08
2018-04-23T20:42:35.236Z,101016.73
2018-04-23T20:45:07.626Z,101016.01
2018-04-23T20:47:36.148Z,101014.94
2018-04-23T20:50:07.763Z,101011.34
2018-04-23T20:52:36.068Z,101018.87
2018-04-23T20:55:12.163Z,101024.27
2018-04-23T20:57:40.587Z,101020.39
2018-04-23T21:00:13.091Z,101025.30
2018-04-23T21:02:41.405Z,101016.66
2018-04-23T21:05:09.711Z,101017.62
2018-04-23T21:07:38.024Z,101020.34
2018-04-23T21:10:07.323Z,101021.18
2018-04-23T21:12:35.675Z,101028.47
2018-04-23T21:15:08.711Z,101034.90
2018-04-23T21:17:37.051Z,101039.09
2018-04-23T21:20:05.893Z,101038.28
2018-04-23T21:22:34.206Z,101039.85
2018-04-23T21:25:06.246Z,101040.84
2018-04-23T21:27:34.541Z,101055.97
2018-04-23T21:30:06.696Z,101052.73
2018-04-23T21:32:35.545Z,101050.11
2018-04-23T21:35:06.946Z,101043.81
2018-04-23T21:37:35.260Z,101047.83
2018-04-23T21:40:06.675Z,101048.48
2018-04-23T21:42:34.956Z,101054.12
2018-04-23T21:45:06.388Z,101063.03
2018-04-23T21:47:34.691Z,101058.26
2018-04-23T21:50:06.307Z,101058.65
2018-04-23T21:52:34.617Z,101054.88
2018-04-23T21:55:05.631Z,101059.20
2018-04-23T21:57:33.966Z,101056.82
2018-04-23T22:00:05.413Z,101064.30
2018-04-23T22:02:33.765Z,101066.80
2018-04-23T22:05:05.047Z,101068.42
2018-04-23T22:07:33.315Z,101061.27
2018-04-23T22:10:07.956Z,101060.52
2018-04-23T22:12:36.216Z,101061.45
2018-04-23T22:15:07.551Z,101066.42
2018-04-23T22:17:35.879Z,101064.55
2018-04-23T22:20:07.292Z,101067.33
2018-04-23T22:22:35.563Z,101070.42
2018-04-23T22:25:05.583Z,101076.42
2018-04-23T22:27:33.961Z,101066.09
2018-04-23T22:30:05.391Z,101070.22
2018-04-23T22:32:33.686Z,101078.28
2018-04-23T22:35:05.446Z,101077.00
2018-04-23T22:37:33.728Z,101077.71
2018-04-23T22:40:05.002Z,101079.23
2018-04-23T22:42:33.506Z,101080.80
2018-04-23T22:45:05.087Z,101083.09
2018-04-23T22:47:33.379Z,101082.00
2018-04-23T22:50:08.130Z,101090.97
2018-04-23T22:52:36.419Z,101089.82
2018-04-23T22:55:06.435Z,101078.77
2018-04-23T22:57:34.944Z,101088.72
2018-04-23T23:00:07.044Z,101094.16
2018-04-23T23:02:35.452Z,101095.02
2018-04-23T23:05:07.218Z,101097.95
2018-04-23T23:07:35.507Z,101101.36
2018-04-23T23:10:07.480Z,101105.63
2018-04-23T23:12:35.759Z,101101.84
2018-04-23T23:15:05.756Z,101106.23
2018-04-23T23:17:34.043Z,101104.45
2018-04-23T23:20:05.442Z,101105.25
2018-04-23T23:22:33.735Z,101112.26
2018-04-23T23:25:08.646Z,101109.97
2018-04-23T23:27:36.954Z,101113.33
2018-04-23T23:30:06.263Z,101113.89
2018-04-23T23:32:35.403Z,101111.14
2018-04-23T23:35:06.087Z,101119.88
2018-04-23T23:37:35.035Z,101120.32
2018-04-23T23:40:06.683Z,101118.90
2018-04-23T23:42:34.974Z,101119.70
2018-04-23T23:45:06.225Z,101125.48
2018-04-23T23:47:34.543Z,101124.41
2018-04-23T23:50:06.477Z,101119.27
2018-04-23T23:52:35.063Z,101127.70
2018-04-23T23:55:06.891Z,101132.97
2018-04-23T23:57:35.165Z,101131.26
